Terminal Aerodrome Forecast
Issued by NWS Nashville, TN

Home | Current Version | Previous Version | Text Only | Print | Product List | Glossary On
Versions: 1 2 3 4 5 6 7 8 9 10 11 12 13 14 15 16 17 18
000
FTUS44 KOHX 251700 CCA
TAFCSV
TAF COR
KCSV 251747Z 2518/2618 19010G17KT P6SM -SHRA OVC045
     FM252200 17008KT 5SM -SHRA BR VCTS OVC030CB
     FM260400 16006KT P6SM OVC040
     FM260900 18006KT 5SM BR VCSH OVC015
     FM261300 19011KT 5SM -SHRA BR VCTS OVC020CB=

USA.gov is the U.S. government's official web portal to all federal, state and local government web resources and services.